Aérodrome :
LOGIN :

S'inscrire | Disclaimer

   EN    FR    IT 

 










Légende :    VFR   VFR Marginal   IFR   IFR Intensif   IFR Très Intensif
Visi : 
Plafond : 
>= 8 km
>= 3000ft
5 à 8 km
1000 à 3000 ft
1500m à 5 km
500 à 1000 ft
800 à 1500m
200 à 500 ft
< 800m
< 200 ft
Symboles :   Orages  Brouillard  Fortes neiges  Fortes précipitations  Vent > 20 kt
SIGMETs :   Divers  Orages  Givrage  Turbulence  Onde Orograph.  Cendres Volcan.







- Altitude de l'aérodrome : 1830 ft


EBLB - Butgenbach Elsenborn

DERNIER METAR :
  • 131450Z AUTO 08005KT 9999 FEW018/// M02/M06 Q1016 BLU

METARs EXPIRÉS :
  • 131425Z AUTO 07006KT 9999 SCT018/// M02/M05 Q1016 WHT
  • 131424Z AUTO 08006KT 9999 SCT018/// M02/M05 Q1016 WHT
  • 131355Z AUTO 08007KT 9999 FEW019/// M02/M06 Q1015 BLU
  • 131325Z AUTO 09007KT 9999 NCD M02/M06 Q1015 BLU
  • 131255Z AUTO 08007KT 9999 FEW015/// M02/M05 Q1016 BLU
  • 131225Z AUTO 10005KT 9999 NCD M02/M05 Q1016 BLU
  • 131155Z AUTO 09009KT 9999 FEW017/// M02/M06 Q1016 BLU

Prévision TAF périmée.
Pas de NOTAMs connus pour ce terrain.



MET'MAP, la Météo Aéronautique d'un coup d'oeil ! - Copyright ORBIFLY Décembre 2007 - Disclaimer

ORBIFLY MET'MAP TEAM :

Programmation & Développement : Alexandra Zaïnal
Conception & Développement : Baudouin d'Aumeries
Co-Programmation & Développement : Marc-Olivier Méhu
Soutien technique & logistique : Manuel Goepfert

Contact : metmap@orbifly.com




SOURCES & CREDITS :

   NOAA